createdAt,value
2018-06-14T00:01:41.808Z,25.53
2018-06-14T00:04:12.992Z,25.40
2018-06-14T00:06:44.033Z,26.27
2018-06-14T00:09:15.704Z,25.40
2018-06-14T00:11:46.940Z,25.67
2018-06-14T00:14:23.368Z,24.97
2018-06-14T00:16:54.299Z,24.90
2018-06-14T00:19:25.505Z,25.67
2018-06-14T00:21:56.680Z,25.87
2018-06-14T00:24:28.084Z,24.73
2018-06-14T00:26:59.448Z,26.17
2018-06-14T00:29:30.800Z,25.90
2018-06-14T00:32:02.090Z,25.17
2018-06-14T00:34:33.384Z,25.17
2018-06-14T00:37:04.571Z,24.23
2018-06-14T00:39:35.943Z,24.50
2018-06-14T00:42:07.389Z,24.37
2018-06-14T00:44:38.724Z,24.20
2018-06-14T00:47:09.921Z,24.47
2018-06-14T00:49:41.137Z,24.10
2018-06-14T00:52:12.554Z,24.70
2018-06-14T00:54:43.993Z,24.73
2018-06-14T00:57:27.678Z,24.13
2018-06-14T00:59:59.428Z,24.67
2018-06-14T01:02:30.888Z,25.67
2018-06-14T01:05:02.047Z,24.67
2018-06-14T01:07:33.464Z,25.70
2018-06-14T01:10:04.870Z,25.23
2018-06-14T01:12:36.216Z,25.73
2018-06-14T01:15:07.359Z,25.70
2018-06-14T01:17:38.786Z,25.57
2018-06-14T01:20:09.971Z,25.70
2018-06-14T01:22:41.628Z,26.17
2018-06-14T01:25:12.778Z,24.97
2018-06-14T01:27:44.427Z,25.07
2018-06-14T01:30:15.736Z,25.07
2018-06-14T01:32:47.111Z,24.73
2018-06-14T01:35:18.276Z,25.33
2018-06-14T01:38:55.479Z,24.43
2018-06-14T01:41:27.065Z,24.93
2018-06-14T01:43:57.665Z,24.83
2018-06-14T01:46:28.277Z,25.00
2018-06-14T01:48:59.343Z,23.80
2018-06-14T01:51:30.472Z,24.63
2018-06-14T01:54:01.977Z,24.73
2018-06-14T01:56:33.276Z,24.00
2018-06-14T01:59:04.306Z,25.50
2018-06-14T02:01:35.710Z,25.03
2018-06-14T02:04:06.957Z,24.80
2018-06-14T02:06:38.250Z,24.33
2018-06-14T02:09:10.643Z,24.77
2018-06-14T02:11:42.042Z,23.97
2018-06-14T02:14:13.217Z,24.93
2018-06-14T02:16:43.777Z,24.90
2018-06-14T02:19:14.804Z,25.53
2018-06-14T02:21:46.451Z,25.17
2018-06-14T02:24:17.571Z,25.07
2018-06-14T02:26:49.558Z,25.73
2018-06-14T02:29:20.784Z,25.67
2018-06-14T02:31:52.432Z,24.47
2018-06-14T02:34:23.648Z,24.03
2018-06-14T02:36:55.280Z,25.17
2018-06-14T02:39:26.503Z,24.60
2018-06-14T02:41:57.984Z,24.20
2018-06-14T02:44:29.409Z,23.70
2018-06-14T02:47:00.465Z,24.67
2018-06-14T02:49:32.446Z,24.50
2018-06-14T02:52:04.403Z,24.07
2018-06-14T02:54:35.909Z,23.07
2018-06-14T02:57:06.546Z,23.70
2018-06-14T02:59:37.607Z,23.90
2018-06-14T03:02:09.025Z,23.70
2018-06-14T03:04:40.252Z,22.87
2018-06-14T03:07:11.510Z,23.10
2018-06-14T03:09:42.564Z,22.63
2018-06-14T03:12:13.544Z,22.60
2018-06-14T03:14:44.849Z,22.40
2018-06-14T03:17:16.155Z,23.67
2018-06-14T03:19:47.599Z,21.90
2018-06-14T03:22:19.324Z,21.80
2018-06-14T03:24:50.692Z,22.77
2018-06-14T03:27:21.703Z,22.03
2018-06-14T03:29:53.095Z,22.70
2018-06-14T03:32:24.388Z,22.33
2018-06-14T03:34:55.023Z,22.40
2018-06-14T03:37:26.115Z,21.53
2018-06-14T03:39:58.104Z,22.30
2018-06-14T03:42:29.436Z,21.40
2018-06-14T03:45:01.283Z,22.17
2018-06-14T03:47:32.601Z,22.67
2018-06-14T03:50:03.895Z,22.60
2018-06-14T03:52:35.767Z,21.97
2018-06-14T03:55:06.969Z,22.47
2018-06-14T03:57:37.940Z,22.07
2018-06-14T04:00:09.395Z,21.53
2018-06-14T04:02:40.537Z,21.13
2018-06-14T04:05:11.690Z,21.07
2018-06-14T04:07:42.773Z,21.57
2018-06-14T04:10:13.957Z,21.33
2018-06-14T04:12:45.159Z,20.30
2018-06-14T04:15:16.468Z,20.00
2018-06-14T04:17:56.135Z,20.37
2018-06-14T04:20:27.172Z,20.63
2018-06-14T04:22:58.503Z,20.53
2018-06-14T04:25:29.780Z,20.37
2018-06-14T04:28:00.888Z,20.30
2018-06-14T04:30:31.917Z,20.27
2018-06-14T04:33:03.280Z,20.13
2018-06-14T04:35:34.274Z,19.77
2018-06-14T04:38:06.129Z,20.40
2018-06-14T04:40:37.432Z,19.30
2018-06-14T04:43:09.072Z,19.17
2018-06-14T04:45:40.395Z,20.10
2018-06-14T04:48:11.615Z,19.97
2018-06-14T04:50:42.613Z,19.27
2018-06-14T04:53:13.776Z,19.70
2018-06-14T04:55:45.052Z,19.43
2018-06-14T04:58:16.399Z,19.60
2018-06-14T05:00:47.804Z,19.30
2018-06-14T05:03:19.172Z,19.00
2018-06-14T05:05:50.344Z,19.37
2018-06-14T05:08:24.574Z,19.47
2018-06-14T05:10:56.319Z,19.83
2018-06-14T05:13:27.749Z,19.73
2018-06-14T05:16:03.296Z,20.10
2018-06-14T05:18:34.535Z,19.13
2018-06-14T05:21:05.795Z,19.80
2018-06-14T05:23:37.208Z,19.30
2018-06-14T05:26:08.568Z,19.53
2018-06-14T05:28:40.193Z,19.30
2018-06-14T05:31:11.504Z,19.50
2018-06-14T05:33:43.340Z,19.60
2018-06-14T05:36:15.767Z,18.67
2018-06-14T05:38:47.433Z,18.80
2018-06-14T05:41:18.615Z,19.00
2018-06-14T05:43:49.820Z,19.53
2018-06-14T05:46:20.824Z,19.33
2018-06-14T05:48:52.249Z,19.83
2018-06-14T05:51:23.394Z,19.30
2018-06-14T05:53:55.066Z,19.40
2018-06-14T05:56:26.196Z,18.43
2018-06-14T05:58:57.567Z,17.77
2018-06-14T06:01:28.935Z,19.43
2018-06-14T06:03:59.939Z,18.80
2018-06-14T06:06:31.154Z,19.33
2018-06-14T06:09:02.538Z,19.20
2018-06-14T06:11:33.688Z,18.77
2018-06-14T06:14:05.030Z,18.87
2018-06-14T06:16:36.288Z,18.23
2018-06-14T06:19:07.491Z,18.60
2018-06-14T06:21:38.680Z,19.43
2018-06-14T06:24:10.063Z,18.57
2018-06-14T06:26:41.268Z,18.33
2018-06-14T06:29:12.934Z,18.53
2018-06-14T06:31:44.029Z,18.73
2018-06-14T06:34:15.213Z,17.97
2018-06-14T06:36:46.250Z,18.73
2018-06-14T06:39:17.721Z,19.07
2018-06-14T06:41:48.313Z,19.07
2018-06-14T06:44:19.400Z,17.80
2018-06-14T06:46:50.589Z,18.60
2018-06-14T06:49:21.572Z,18.50
2018-06-14T06:51:52.605Z,18.73
2018-06-14T06:54:24.260Z,19.47
2018-06-14T06:56:55.557Z,19.00
2018-06-14T06:59:26.756Z,19.10
2018-06-14T07:01:58.208Z,18.57
2018-06-14T07:04:29.322Z,18.17
2018-06-14T07:07:00.504Z,18.10
2018-06-14T07:09:31.556Z,17.53
2018-06-14T07:12:02.998Z,17.63
2018-06-14T07:14:34.283Z,17.70
2018-06-14T07:17:05.487Z,17.97
2018-06-14T07:19:37.161Z,17.90
2018-06-14T07:22:08.261Z,17.13
2018-06-14T07:24:39.640Z,17.20
2018-06-14T07:27:11.043Z,17.70
2018-06-14T07:29:42.253Z,17.27
2018-06-14T07:32:13.903Z,17.53
2018-06-14T07:34:45.979Z,15.87
2018-06-14T07:37:17.164Z,15.97
2018-06-14T07:39:48.406Z,17.33
2018-06-14T07:42:19.799Z,15.37
2018-06-14T07:44:51.148Z,15.73
2018-06-14T07:47:23.007Z,15.43
2018-06-14T07:49:54.303Z,15.03
2018-06-14T07:52:25.500Z,14.20
2018-06-14T07:54:56.751Z,14.00
2018-06-14T07:57:28.107Z,13.10
2018-06-14T07:59:59.535Z,12.90
2018-06-14T08:02:30.843Z,13.10
2018-06-14T08:05:02.047Z,12.30
2018-06-14T08:07:33.053Z,13.67
2018-06-14T08:10:04.361Z,13.57
2018-06-14T08:12:35.603Z,13.30
2018-06-14T08:15:06.824Z,13.33
2018-06-14T08:17:38.495Z,13.43
2018-06-14T08:20:10.245Z,13.30
2018-06-14T08:22:41.388Z,12.87
2018-06-14T08:25:12.796Z,13.40
2018-06-14T08:27:44.154Z,13.83
2018-06-14T08:30:15.347Z,12.97
2018-06-14T08:32:46.726Z,12.83
2018-06-14T08:35:17.927Z,13.33
2018-06-14T08:37:49.297Z,13.00
2018-06-14T08:40:20.696Z,11.90
2018-06-14T08:42:51.671Z,13.30
2018-06-14T08:45:23.139Z,12.63
2018-06-14T08:47:54.743Z,12.23
2018-06-14T08:50:26.105Z,12.73
2018-06-14T08:52:58.091Z,12.43
2018-06-14T08:55:29.441Z,12.13
2018-06-14T08:58:00.504Z,12.60
2018-06-14T09:00:31.788Z,13.33
2018-06-14T09:03:03.071Z,12.57
2018-06-14T09:05:34.375Z,12.63
2018-06-14T09:08:05.577Z,13.40
2018-06-14T09:10:36.745Z,13.70
2018-06-14T09:13:08.747Z,14.40
2018-06-14T09:15:39.928Z,13.93
2018-06-14T09:18:11.121Z,14.40
2018-06-14T09:20:42.592Z,13.37
2018-06-14T09:23:13.895Z,13.10
2018-06-14T09:25:45.093Z,13.30
2018-06-14T09:28:16.107Z,12.80
2018-06-14T09:30:47.531Z,13.40
2018-06-14T09:33:18.859Z,12.50
2018-06-14T09:35:50.231Z,11.97
2018-06-14T09:38:21.733Z,11.20
2018-06-14T09:40:53.013Z,11.57
2018-06-14T09:43:24.359Z,12.10
2018-06-14T09:45:55.608Z,11.40
2018-06-14T09:48:26.972Z,10.67
2018-06-14T09:50:58.203Z,10.87
2018-06-14T09:53:29.576Z,11.37
2018-06-14T09:56:00.861Z,11.57
2018-06-14T09:58:32.168Z,11.67
2018-06-14T10:01:03.308Z,10.50
2018-06-14T10:03:34.607Z,11.40
2018-06-14T10:06:06.044Z,10.10
2018-06-14T10:08:37.344Z,9.83
2018-06-14T10:11:08.979Z,9.43
2018-06-14T10:13:40.119Z,8.67
2018-06-14T10:16:11.292Z,8.40
2018-06-14T10:18:42.315Z,8.10
2018-06-14T10:21:13.946Z,8.57
2018-06-14T10:23:45.046Z,8.50
2018-06-14T10:26:16.463Z,8.60
2018-06-14T10:28:48.208Z,8.60
2018-06-14T10:31:19.597Z,8.50
2018-06-14T10:33:50.865Z,7.97
2018-06-14T10:36:22.010Z,8.13
2018-06-14T10:38:53.352Z,8.20
2018-06-14T10:41:24.847Z,8.30
2018-06-14T10:43:56.200Z,7.97
2018-06-14T10:46:28.009Z,8.10
2018-06-14T10:49:00.058Z,8.53
2018-06-14T10:51:31.309Z,9.10
2018-06-14T10:54:02.519Z,9.57
2018-06-14T10:56:33.729Z,8.70
2018-06-14T10:59:05.114Z,7.70
2018-06-14T11:01:36.497Z,7.23
2018-06-14T11:04:07.909Z,7.20
2018-06-14T11:06:39.067Z,7.20
2018-06-14T11:09:12.984Z,7.50
2018-06-14T11:11:44.459Z,7.23
2018-06-14T11:14:15.616Z,6.93
2018-06-14T11:16:47.628Z,7.80
2018-06-14T11:19:18.921Z,7.30
2018-06-14T11:21:50.131Z,7.30
2018-06-14T11:24:21.323Z,7.30
2018-06-14T11:26:52.501Z,7.57
2018-06-14T11:29:23.518Z,7.03
2018-06-14T11:31:54.892Z,6.03
2018-06-14T11:34:26.406Z,5.70
2018-06-14T11:36:56.993Z,6.40
2018-06-14T11:39:27.774Z,6.40
2018-06-14T11:41:59.584Z,5.73
2018-06-14T11:44:30.174Z,6.40
2018-06-14T11:47:00.907Z,6.83
2018-06-14T11:49:32.056Z,7.03
2018-06-14T11:52:03.457Z,7.33
2018-06-14T11:54:34.837Z,6.40
2018-06-14T11:57:06.054Z,6.57
2018-06-14T11:59:37.452Z,5.97
2018-06-14T12:02:09.065Z,7.07
2018-06-14T12:04:40.956Z,6.30
2018-06-14T12:07:12.147Z,6.20
2018-06-14T12:09:43.374Z,6.47
2018-06-14T12:12:15.372Z,6.60
2018-06-14T12:14:47.187Z,7.90
2018-06-14T12:17:18.517Z,6.80
2018-06-14T12:19:49.688Z,6.40
2018-06-14T12:22:20.918Z,6.77
2018-06-14T12:24:52.069Z,7.10
2018-06-14T12:27:23.098Z,7.20
2018-06-14T12:29:54.443Z,6.40
2018-06-14T12:32:25.670Z,5.93
2018-06-14T12:34:57.414Z,6.33
2018-06-14T12:37:28.598Z,5.90
2018-06-14T12:39:59.642Z,5.93
2018-06-14T12:42:30.847Z,5.87
2018-06-14T12:45:02.199Z,6.03
2018-06-14T12:47:33.176Z,5.90
2018-06-14T12:50:04.276Z,5.60
2018-06-14T12:52:36.292Z,5.63
2018-06-14T12:55:07.679Z,6.10
2018-06-14T12:57:38.945Z,6.63
2018-06-14T13:00:10.644Z,6.20
2018-06-14T13:02:41.174Z,5.87
2018-06-14T13:05:12.819Z,6.70
2018-06-14T13:07:43.543Z,7.30
2018-06-14T13:10:14.516Z,9.07
2018-06-14T13:12:46.432Z,14.30
2018-06-14T13:15:17.510Z,9.37
2018-06-14T13:17:48.857Z,6.70
2018-06-14T13:20:20.327Z,6.40
2018-06-14T13:22:51.776Z,5.30
2018-06-14T13:25:23.069Z,5.70
2018-06-14T13:27:54.420Z,5.57
2018-06-14T13:30:25.407Z,5.13
2018-06-14T13:32:56.616Z,5.97
2018-06-14T13:35:27.964Z,6.03
2018-06-14T13:37:59.648Z,6.03
2018-06-14T13:40:31.275Z,6.20
2018-06-14T13:43:02.565Z,5.80
2018-06-14T13:45:33.919Z,5.73
2018-06-14T13:48:05.159Z,6.00
2018-06-14T13:50:36.405Z,5.70
2018-06-14T13:53:07.747Z,5.50
2018-06-14T13:55:39.595Z,4.70
2018-06-14T13:58:10.870Z,5.40
2018-06-14T14:00:42.280Z,5.43
2018-06-14T14:03:13.718Z,4.93
2018-06-14T14:05:44.828Z,5.30
2018-06-14T14:08:16.060Z,5.27
2018-06-14T14:10:47.363Z,5.30
2018-06-14T14:13:18.404Z,7.63
2018-06-14T14:15:49.866Z,5.87
2018-06-14T14:18:21.131Z,5.57
2018-06-14T14:20:52.751Z,5.00
2018-06-14T14:23:23.760Z,5.90
2018-06-14T14:25:54.771Z,5.60
2018-06-14T14:28:25.951Z,5.33
2018-06-14T14:30:56.960Z,5.80
2018-06-14T14:33:28.168Z,4.93
2018-06-14T14:35:59.568Z,4.47
2018-06-14T14:38:30.993Z,4.30
2018-06-14T14:41:02.317Z,4.50
2018-06-14T14:43:33.312Z,4.87
2018-06-14T14:46:04.696Z,5.00
2018-06-14T14:48:35.903Z,5.00
2018-06-14T14:51:07.562Z,5.20
2018-06-14T14:53:38.879Z,5.23
2018-06-14T14:56:10.525Z,4.93
2018-06-14T14:58:41.887Z,5.80
2018-06-14T15:01:13.231Z,5.20
2018-06-14T15:03:45.327Z,5.00
2018-06-14T15:06:17.370Z,5.47
2018-06-14T15:08:48.836Z,6.00
2018-06-14T15:11:20.149Z,5.90
2018-06-14T15:19:46.275Z,5.97
2018-06-14T15:22:17.348Z,5.20
2018-06-14T15:24:48.523Z,5.40
2018-06-14T15:27:19.936Z,6.33
2018-06-14T15:29:51.264Z,18.93
2018-06-14T15:32:22.299Z,6.13
2018-06-14T15:34:53.702Z,5.80
2018-06-14T15:37:24.701Z,5.70
2018-06-14T15:39:56.336Z,5.20
2018-06-14T15:42:27.425Z,5.40
2018-06-14T15:44:58.424Z,4.90
2018-06-14T15:47:30.399Z,5.50
2018-06-14T15:50:01.441Z,5.10
2018-06-14T15:52:33.658Z,4.60
2018-06-14T15:55:20.672Z,4.90
2018-06-14T15:57:51.859Z,4.90
2018-06-14T16:00:22.872Z,5.43
2018-06-14T16:02:53.860Z,5.40
2018-06-14T16:05:25.085Z,4.90
2018-06-14T16:07:56.246Z,5.33
2018-06-14T16:10:27.445Z,5.77
2018-06-14T16:12:58.903Z,5.60
2018-06-14T16:15:30.223Z,5.30
2018-06-14T16:18:01.232Z,5.77
2018-06-14T16:20:32.415Z,5.33
2018-06-14T16:23:03.680Z,5.10
2018-06-14T16:25:34.804Z,5.53
2018-06-14T16:28:06.479Z,5.73
2018-06-14T16:30:37.677Z,5.87
2018-06-14T16:33:09.671Z,5.30
2018-06-14T16:35:40.975Z,5.50
2018-06-14T16:38:12.319Z,5.50
2018-06-14T16:40:44.564Z,5.23
2018-06-14T16:43:16.449Z,5.17
2018-06-14T16:45:47.723Z,6.00
2018-06-14T16:48:19.069Z,5.30
2018-06-14T16:50:50.322Z,5.07
2018-06-14T16:53:21.457Z,5.50
2018-06-14T16:55:52.501Z,5.50
2018-06-14T16:58:24.003Z,5.27
2018-06-14T17:00:55.287Z,5.67
2018-06-14T17:03:26.694Z,5.30
2018-06-14T17:05:57.838Z,5.63
2018-06-14T17:08:29.200Z,5.43
2018-06-14T17:11:00.850Z,5.20
2018-06-14T17:13:32.174Z,5.27
2018-06-14T17:16:03.392Z,5.47
2018-06-14T17:18:34.522Z,5.43
2018-06-14T17:21:05.755Z,5.10
2018-06-14T17:23:38.165Z,4.80
2018-06-14T17:26:09.314Z,5.23
2018-06-14T17:28:40.687Z,5.30
2018-06-14T17:31:12.499Z,5.10
2018-06-14T17:33:43.675Z,5.90
2018-06-14T17:36:15.228Z,6.00
2018-06-14T17:38:46.249Z,4.87
2018-06-14T17:41:17.735Z,4.70
2018-06-14T17:43:49.042Z,5.03
2018-06-14T17:46:20.265Z,4.77
2018-06-14T17:48:51.400Z,4.93
2018-06-14T17:51:22.601Z,4.60
2018-06-14T17:53:53.976Z,4.87
2018-06-14T17:56:25.380Z,5.03
2018-06-14T17:58:56.549Z,5.80
2018-06-14T18:01:27.785Z,5.90
2018-06-14T18:03:59.185Z,5.03
2018-06-14T18:06:30.545Z,5.80
2018-06-14T18:09:01.927Z,5.43
2018-06-14T18:11:33.085Z,6.17
2018-06-14T18:14:04.594Z,5.67
2018-06-14T18:16:35.943Z,5.50
2018-06-14T18:19:07.278Z,5.10
2018-06-14T18:21:38.697Z,5.37
2018-06-14T18:24:10.184Z,5.53
2018-06-14T18:26:41.384Z,5.30
2018-06-14T18:29:12.619Z,6.23
2018-06-14T18:31:43.792Z,5.60
2018-06-14T18:34:15.207Z,5.60
2018-06-14T18:36:46.377Z,5.20
2018-06-14T18:39:17.621Z,5.73
2018-06-14T18:41:48.948Z,5.70
2018-06-14T18:44:20.644Z,5.50
2018-06-14T18:46:51.757Z,5.40
2018-06-14T18:49:22.945Z,6.00
2018-06-14T18:51:54.209Z,5.80
2018-06-14T18:54:25.493Z,5.60
2018-06-14T18:56:57.781Z,5.87
2018-06-14T18:59:29.060Z,5.77
2018-06-14T19:02:00.268Z,6.03
2018-06-14T19:04:31.505Z,5.73
2018-06-14T19:07:02.863Z,5.93
2018-06-14T19:09:34.513Z,6.30
2018-06-14T19:12:05.704Z,5.77
2018-06-14T19:14:37.285Z,6.10
2018-06-14T19:17:08.592Z,6.23
2018-06-14T19:19:40.241Z,6.00
2018-06-14T19:22:12.025Z,6.30
2018-06-14T19:24:43.208Z,5.77
2018-06-14T19:27:14.364Z,5.50
2018-06-14T19:29:45.540Z,5.60
2018-06-14T19:32:16.908Z,5.87
2018-06-14T19:34:47.913Z,5.60
2018-06-14T19:37:19.267Z,5.37
2018-06-14T19:39:50.559Z,5.70
2018-06-14T19:42:21.867Z,6.03
2018-06-14T19:44:52.888Z,5.27
2018-06-14T19:47:24.264Z,5.80
2018-06-14T19:49:55.656Z,5.83
2018-06-14T19:52:26.856Z,5.80
2018-06-14T19:54:58.206Z,5.70
2018-06-14T19:57:29.423Z,5.93
2018-06-14T20:00:00.806Z,5.70
2018-06-14T20:02:32.035Z,6.23
2018-06-14T20:05:03.407Z,5.70
2018-06-14T20:07:34.588Z,6.40
2018-06-14T20:10:06.036Z,7.03
2018-06-14T20:12:37.799Z,6.63
2018-06-14T20:15:09.627Z,6.90
2018-06-14T20:17:40.931Z,5.93
2018-06-14T20:20:13.251Z,6.53
2018-06-14T20:22:44.272Z,6.70
2018-06-14T20:25:15.300Z,6.80
2018-06-14T20:27:46.715Z,6.67
2018-06-14T20:30:18.319Z,6.57
2018-06-14T20:32:49.636Z,6.60
2018-06-14T20:35:20.867Z,6.70
2018-06-14T20:37:52.255Z,6.67
2018-06-14T20:40:23.660Z,6.93
2018-06-14T20:42:54.792Z,7.03
2018-06-14T20:45:26.480Z,6.80
2018-06-14T20:47:57.927Z,7.27
2018-06-14T20:50:29.926Z,6.50
2018-06-14T20:53:01.367Z,7.10
2018-06-14T20:55:34.241Z,7.00
2018-06-14T20:58:05.357Z,6.67
2018-06-14T21:00:37.695Z,7.23
2018-06-14T21:03:08.836Z,6.67
2018-06-14T21:05:40.068Z,7.13
2018-06-14T21:08:11.427Z,6.63
2018-06-14T21:10:42.453Z,6.73
2018-06-14T21:13:13.804Z,6.60
2018-06-14T21:15:45.217Z,6.43
2018-06-14T21:18:16.415Z,6.80
2018-06-14T21:20:47.898Z,6.80
2018-06-14T21:23:19.015Z,7.20
2018-06-14T21:25:50.416Z,6.70
2018-06-14T21:28:21.766Z,6.77
2018-06-14T21:30:53.161Z,7.17
2018-06-14T21:33:24.567Z,7.13
2018-06-14T21:35:55.955Z,6.87
2018-06-14T21:38:27.960Z,7.00
2018-06-14T21:40:59.754Z,6.93
2018-06-14T21:43:31.044Z,6.70
2018-06-14T21:46:02.886Z,7.20
2018-06-14T21:48:34.302Z,7.20
2018-06-14T21:51:05.731Z,6.50
2018-06-14T21:53:36.794Z,6.73
2018-06-14T21:56:07.831Z,7.07
2018-06-14T21:58:38.984Z,6.50
2018-06-14T22:01:12.177Z,7.40
2018-06-14T22:03:48.288Z,6.67
2018-06-14T22:06:19.482Z,7.03
2018-06-14T22:08:50.656Z,6.77
2018-06-14T22:11:22.027Z,7.20
2018-06-14T22:13:53.301Z,7.30
2018-06-14T22:16:24.769Z,6.60
2018-06-14T22:18:56.021Z,6.43
2018-06-14T22:21:27.670Z,6.33
2018-06-14T22:23:58.768Z,6.57
2018-06-14T22:26:30.010Z,6.50
2018-06-14T22:29:01.820Z,6.57
2018-06-14T22:31:33.416Z,6.40
2018-06-14T22:34:20.294Z,6.47
2018-06-14T22:36:51.800Z,6.73
2018-06-14T22:39:22.844Z,7.00
2018-06-14T22:41:54.284Z,6.53
2018-06-14T22:44:25.640Z,7.10
2018-06-14T22:46:57.000Z,7.00
2018-06-14T22:49:28.494Z,6.50
2018-06-14T22:53:08.997Z,6.80
2018-06-14T22:55:40.305Z,7.03
2018-06-14T22:58:11.361Z,6.53
2018-06-14T23:01:34.232Z,6.37
2018-06-14T23:04:05.925Z,7.20
2018-06-14T23:06:37.512Z,7.50
2018-06-14T23:10:24.958Z,6.83
2018-06-14T23:12:56.288Z,6.80
2018-06-14T23:15:27.715Z,6.40
2018-06-14T23:17:59.265Z,6.53
2018-06-14T23:20:31.692Z,6.43
2018-06-14T23:23:03.585Z,6.87
2018-06-14T23:25:35.144Z,6.47
2018-06-14T23:28:06.504Z,7.23
2018-06-14T23:30:37.636Z,6.97
2018-06-14T23:33:08.995Z,7.17
2018-06-14T23:35:40.331Z,6.67
2018-06-14T23:38:11.373Z,6.53
2018-06-14T23:40:42.697Z,7.17
2018-06-14T23:43:13.724Z,7.33
2018-06-14T23:45:44.706Z,6.67
2018-06-14T23:48:16.117Z,7.03
2018-06-14T23:50:47.883Z,7.20
2018-06-14T23:53:19.645Z,7.13
2018-06-14T23:55:50.884Z,6.57
2018-06-14T23:58:22.277Z,7.07
